Time;durP1;ratioP1;P1;durP2;ratioP2;P2;SDS_P1;SDS_P2;PMS_P1;PMS_P2;Temp;Humidity;BMP_temperature;BMP_pressure;BME280_temperature;BME280_humidity;BME280_pressure;Samples;Min_cycle;Max_cycle;Signal;HPM_P1;HPM_P2
2023/03/02 00:01:35;;;;;;;10.83;9.83;;;;;;;20.81;36.39;95347.38;6195722;28;109787;-60
2023/03/02 00:04:44;;;;;;;9.47;8.77;;;;;;;20.83;35.94;95347.06;6230250;28;108788;-61
2023/03/02 00:07:47;;;;;;;9.00;8.30;;;;;;;20.83;36.19;95350.53;6110854;28;109116;-62
2023/03/02 00:10:50;;;;;;;9.10;8.40;;;;;;;20.81;36.11;95347.38;6124645;28;109287;-63
2023/03/02 00:13:55;;;;;;;9.60;8.90;;;;;;;20.84;36.28;95352.13;6141450;28;108915;-61
2023/03/02 00:16:58;;;;;;;9.40;8.70;;;;;;;20.84;36.49;95340.69;6133055;28;109218;-61
2023/03/02 00:20:06;;;;;;;8.40;7.80;;;;;;;20.83;36.02;95339.88;6201900;28;109243;-61
2023/03/02 00:23:09;;;;;;;8.93;8.13;;;;;;;20.83;36.31;95333.78;6236982;28;110257;-61
2023/03/02 00:26:12;;;;;;;9.53;8.73;;;;;;;20.73;36.04;95313.47;6218665;28;109838;-62
2023/03/02 00:29:17;;;;;;;7.70;7.10;;;;;;;20.82;36.07;95338.31;6174872;28;109277;-61
2023/03/02 00:32:20;;;;;;;6.93;6.40;;;;;;;20.82;36.16;95340.97;6187518;28;110473;-61
2023/03/02 00:35:24;;;;;;;8.50;7.73;;;;;;;20.83;36.09;95323.94;6136007;28;110943;-61
2023/03/02 00:38:27;;;;;;;7.70;7.10;;;;;;;20.82;36.11;95318.91;6122357;28;110094;-62
2023/03/02 00:41:31;;;;;;;7.83;7.23;;;;;;;20.79;35.98;95312.28;6139650;28;110140;-60
2023/03/02 00:44:35;;;;;;;7.27;6.67;;;;;;;20.80;36.16;95319.19;6134213;28;109156;-61
2023/03/02 00:47:39;;;;;;;7.20;6.60;;;;;;;20.79;36.08;95306.19;6114773;28;110501;-61
2023/03/02 00:50:44;;;;;;;7.47;6.97;;;;;;;20.79;36.00;95303.53;6136089;28;109274;-61
2023/03/02 00:53:47;;;;;;;6.90;6.40;;;;;;;20.78;36.03;95293.97;6175092;28;109467;-62
2023/03/02 00:56:50;;;;;;;6.77;6.20;;;;;;;20.78;36.29;95296.63;6145041;28;109065;-61
2023/03/02 00:59:55;;;;;;;6.40;5.90;;;;;;;20.75;35.87;95290.03;6157669;28;110969;-61
2023/03/02 01:02:58;;;;;;;6.60;6.10;;;;;;;20.70;36.14;95284.78;6148608;22;109253;-68
2023/03/02 01:06:01;;;;;;;6.80;6.30;;;;;;;20.73;36.21;95278.09;6162404;28;109113;-68
2023/03/02 01:09:05;;;;;;;6.50;5.93;;;;;;;20.77;36.19;95287.84;6214146;28;110613;-68
2023/03/02 01:12:10;;;;;;;6.03;5.63;;;;;;;20.78;36.14;95284.13;6175920;28;110031;-68
2023/03/02 01:15:14;;;;;;;5.60;5.20;;;;;;;20.79;36.49;95276.94;6111707;28;108899;-68
2023/03/02 01:18:17;;;;;;;5.33;4.93;;;;;;;20.79;36.23;95280.38;6125819;28;109074;-69
2023/03/02 01:21:20;;;;;;;5.47;5.03;;;;;;;20.75;36.20;95267.97;6192682;28;110381;-68
2023/03/02 01:24:24;;;;;;;6.50;6.00;;;;;;;20.73;36.26;95260.28;6166497;28;109546;-69
2023/03/02 01:27:27;;;;;;;6.23;5.67;;;;;;;20.78;36.13;95272.69;6116951;28;110058;-68
2023/03/02 01:30:32;;;;;;;5.40;4.90;;;;;;;20.77;36.12;95271.91;6217929;28;109637;-68
2023/03/02 01:33:35;;;;;;;5.50;5.10;;;;;;;20.76;36.37;95275.66;6215332;27;109101;-68
2023/03/02 01:36:38;;;;;;;5.10;4.70;;;;;;;20.78;35.85;95270.81;6219382;28;108621;-68
2023/03/02 01:39:41;;;;;;;5.80;5.30;;;;;;;20.78;36.42;95278.00;6125515;28;109141;-69
2023/03/02 01:42:52;;;;;;;5.40;4.90;;;;;;;20.77;36.15;95265.81;6109887;28;109589;-69
2023/03/02 01:45:59;;;;;;;5.53;5.07;;;;;;;20.77;35.95;95266.59;6100009;28;111915;-69
2023/03/02 01:49:05;;;;;;;6.30;5.80;;;;;;;20.75;36.23;95267.97;6202448;28;109878;-68
2023/03/02 01:52:09;;;;;;;6.50;5.93;;;;;;;20.77;36.14;95261.25;6120596;28;109697;-69
2023/03/02 01:55:16;;;;;;;7.07;6.47;;;;;;;20.76;36.22;95257.03;6099418;28;109295;-67
2023/03/02 01:58:20;;;;;;;7.37;6.77;;;;;;;20.77;36.13;95260.47;6147014;28;109476;-68
2023/03/02 02:01:26;;;;;;;7.93;7.23;;;;;;;20.76;36.25;95259.69;6148027;28;108788;-68
2023/03/02 02:04:31;;;;;;;7.97;7.23;;;;;;;20.76;36.01;95250.91;6044342;28;109564;-68
2023/03/02 02:07:35;;;;;;;8.00;7.30;;;;;;;20.55;36.04;95224.69;6040926;28;109078;-68
2023/03/02 02:10:39;;;;;;;8.13;7.50;;;;;;;20.73;36.09;95254.97;6124781;28;109254;-68
2023/03/02 02:13:44;;;;;;;8.03;7.33;;;;;;;20.75;35.96;95260.78;6061662;28;108974;-68
2023/03/02 02:16:48;;;;;;;8.90;8.00;;;;;;;20.74;36.09;95263.72;6043987;28;109484;-71
2023/03/02 02:20:05;;;;;;;8.57;7.87;;;;;;;20.74;36.07;95261.84;6128106;28;109790;-68
2023/03/02 02:23:26;;;;;;;8.57;7.87;;;;;;;20.74;36.13;95274.38;6159817;28;109076;-67
2023/03/02 02:26:37;;;;;;;7.83;7.23;;;;;;;20.69;36.09;95267.25;6023854;28;109007;-68
2023/03/02 02:29:44;;;;;;;8.20;7.60;;;;;;;20.73;36.07;95262.94;6028189;28;110502;-67
2023/03/02 02:32:49;;;;;;;8.87;8.07;;;;;;;20.74;35.98;95259.19;6116734;28;110637;-69
2023/03/02 02:36:02;;;;;;;8.13;7.50;;;;;;;20.74;35.79;95264.50;6118015;28;108997;-68
2023/03/02 02:39:08;;;;;;;8.20;7.50;;;;;;;20.74;36.20;95250.44;6153808;28;109111;-68
2023/03/02 02:42:15;;;;;;;8.10;7.40;;;;;;;20.71;36.11;95249.16;6136651;28;110734;-68
2023/03/02 02:45:23;;;;;;;7.97;7.37;;;;;;;20.74;36.11;95261.06;6078289;28;110229;-68
2023/03/02 02:48:29;;;;;;;8.47;7.77;;;;;;;20.65;35.98;95250.28;6020442;28;110045;-68
2023/03/02 02:51:34;;;;;;;8.70;8.00;;;;;;;20.73;36.07;95254.97;6031617;28;109116;-68
2023/03/02 02:54:38;;;;;;;9.23;8.43;;;;;;;20.73;35.91;95257.63;6086091;28;110841;-68
2023/03/02 02:57:43;;;;;;;8.40;7.70;;;;;;;20.74;35.98;95261.06;6074549;28;108859;-67
2023/03/02 03:00:46;;;;;;;8.87;8.10;;;;;;;20.74;36.88;95251.22;6041244;28;108842;-70
2023/03/02 03:03:52;;;;;;;9.20;7.63;;;;;;;20.75;36.80;95252.00;6098963;28;109989;-69
2023/03/02 03:06:58;;;;;;;7.77;7.03;;;;;;;20.75;37.42;95252.78;6156680;28;109246;-70
2023/03/02 03:10:08;;;;;;;7.70;7.10;;;;;;;20.74;36.89;95248.56;6213186;28;109111;-70
2023/03/02 03:13:13;;;;;;;8.37;7.77;;;;;;;20.74;36.84;95237.91;6132878;28;109326;-69
2023/03/02 03:16:18;;;;;;;8.77;8.03;;;;;;;20.73;36.73;95239.00;6081450;28;111376;-69
2023/03/02 03:19:23;;;;;;;14.97;8.63;;;;;;;20.74;36.90;95245.13;6106969;28;109038;-70
2023/03/02 03:22:26;;;;;;;8.30;7.60;;;;;;;20.56;37.08;95222.81;6090609;28;110214;-70
2023/03/02 03:25:30;;;;;;;8.77;7.97;;;;;;;20.72;36.65;95242.75;6159743;28;109132;-68
2023/03/02 03:28:36;;;;;;;8.00;7.40;;;;;;;20.72;36.47;95249.94;6078134;28;109809;-70
2023/03/02 03:31:39;;;;;;;8.50;7.70;;;;;;;20.71;36.42;95246.50;6196572;28;109272;-69
2023/03/02 03:34:43;;;;;;;8.03;7.30;;;;;;;20.73;36.46;95248.84;6157916;28;110144;-69
2023/03/02 03:37:47;;;;;;;7.90;7.20;;;;;;;20.53;36.43;95223.41;6095232;28;109436;-68
2023/03/02 03:40:50;;;;;;;7.50;6.90;;;;;;;20.70;36.20;95250.22;6087428;28;109124;-69
2023/03/02 03:43:55;;;;;;;8.10;7.40;;;;;;;20.68;36.22;95238.31;6089560;28;109427;-69
2023/03/02 03:46:58;;;;;;;8.50;7.80;;;;;;;20.67;36.48;95245.50;6088113;28;109023;-69
2023/03/02 03:50:01;;;;;;;8.27;7.53;;;;;;;20.70;36.28;95247.56;6076410;28;110913;-69
2023/03/02 03:53:05;;;;;;;7.80;7.00;;;;;;;20.69;36.64;95248.66;6186236;28;109368;-70
2023/03/02 03:56:08;;;;;;;7.73;7.13;;;;;;;20.69;35.82;95246.00;6148195;28;109402;-69
2023/03/02 03:59:15;;;;;;;8.10;7.30;;;;;;;20.69;36.06;95253.97;6087153;28;109244;-69
2023/03/02 04:02:18;;;;;;;7.50;6.87;;;;;;;20.70;36.19;95249.44;6077366;28;109470;-71
2023/03/02 04:05:21;;;;;;;8.80;8.10;;;;;;;20.69;36.24;95248.66;6161316;28;109583;-70
2023/03/02 04:08:24;;;;;;;8.00;7.30;;;;;;;20.70;36.32;95250.22;6211517;28;109325;-70
2023/03/02 04:11:28;;;;;;;7.47;6.87;;;;;;;20.69;36.25;95243.34;6179934;28;111746;-70
2023/03/02 04:14:32;;;;;;;7.33;6.73;;;;;;;20.66;36.05;95241.22;6179069;28;109047;-71
2023/03/02 04:17:35;;;;;;;7.90;7.20;;;;;;;20.67;36.37;95242.84;6204759;28;111841;-70
2023/03/02 04:20:39;;;;;;;7.33;6.70;;;;;;;20.69;36.27;95250.53;6119780;28;109046;-70
2023/03/02 04:23:42;;;;;;;8.00;7.20;;;;;;;20.69;36.10;95245.22;6161710;28;109019;-70
2023/03/02 04:26:47;;;;;;;7.43;6.83;;;;;;;20.69;36.10;95237.22;6158555;28;109115;-71
2023/03/02 04:29:52;;;;;;;7.03;6.33;;;;;;;20.67;36.47;95240.19;6188794;28;109144;-71
2023/03/02 04:32:56;;;;;;;6.77;6.17;;;;;;;20.71;37.61;95246.50;6099544;28;109306;-72
2023/03/02 04:36:00;;;;;;;7.37;5.80;;;;;;;20.71;38.19;95240.38;6078729;28;109017;-71
2023/03/02 04:39:04;;;;;;;6.90;5.73;;;;;;;20.72;38.08;95247.28;6086893;28;109500;-72
2023/03/02 04:42:07;;;;;;;19.60;13.50;;;;;;;20.72;38.73;95244.63;6086386;28;109088;-72
2023/03/02 04:45:13;;;;;;;13.60;12.23;;;;;;;20.70;38.92;95238.81;6150118;28;109078;-71
2023/03/02 04:48:16;;;;;;;12.87;11.47;;;;;;;20.74;39.01;95247.78;6175814;28;109544;-71
2023/03/02 04:51:22;;;;;;;18.00;16.30;;;;;;;20.69;39.06;95246.00;6203097;28;109085;-72
2023/03/02 04:54:27;;;;;;;15.10;14.00;;;;;;;20.53;39.08;95220.75;6207691;28;109149;-72
2023/03/02 04:57:30;;;;;;;14.67;13.20;;;;;;;20.69;38.76;95245.22;6080144;28;109289;-75
2023/03/02 05:00:35;;;;;;;13.30;11.97;;;;;;;20.70;38.74;95252.88;6082048;28;109044;-69
2023/03/02 05:03:38;;;;;;;13.33;11.03;;;;;;;20.71;38.33;95257.13;6099527;28;109132;-71
2023/03/02 05:06:41;;;;;;;11.03;10.13;;;;;;;20.70;38.42;95250.22;6093101;28;109014;-70
2023/03/02 05:09:44;;;;;;;11.03;10.03;;;;;;;20.74;38.68;95250.44;6081778;28;109310;-65
2023/03/02 05:13:01;;;;;;;12.57;6.70;;;;;;;20.74;37.18;95259.19;6092290;28;109215;-63
2023/03/02 05:16:06;;;;;;;8.07;7.27;;;;;;;20.62;37.52;95224.28;6123447;28;109087;-64
2023/03/02 05:19:10;;;;;;;8.90;5.77;;;;;;;20.60;36.55;95255.69;6080799;28;110371;-64
2023/03/02 05:22:14;;;;;;;5.93;4.47;;;;;;;20.45;36.22;95259.38;6080101;28;110737;-64
2023/03/02 05:25:17;;;;;;;6.30;4.80;;;;;;;20.55;36.81;95256.56;6084916;28;110235;-62
2023/03/02 05:28:21;;;;;;;4.73;4.30;;;;;;;20.39;36.88;95236.63;6085225;28;109041;-63
2023/03/02 05:31:29;;;;;;;9.30;4.53;;;;;;;20.60;36.81;95267.13;6064672;28;109857;-62
2023/03/02 05:34:33;;;;;;;4.90;4.10;;;;;;;20.64;36.77;95269.97;6061386;28;109221;-62
2023/03/02 05:37:38;;;;;;;6.93;4.10;;;;;;;20.66;36.67;95267.81;6061825;28;110405;-62
2023/03/02 05:40:42;;;;;;;9.10;4.20;;;;;;;20.69;36.68;95269.94;6061924;28;109271;-62
2023/03/02 05:43:45;;;;;;;4.03;3.40;;;;;;;20.72;37.04;95279.19;6051397;28;111908;-62
2023/03/02 05:46:50;;;;;;;4.13;3.70;;;;;;;20.73;36.73;95276.22;6061358;28;109247;-62
2023/03/02 05:49:53;;;;;;;7.17;3.57;;;;;;;20.74;36.43;95272.50;6061773;28;109949;-63
2023/03/02 05:52:57;;;;;;;3.60;3.30;;;;;;;20.74;36.50;95277.03;6059276;28;109237;-62
2023/03/02 05:56:00;;;;;;;4.00;3.37;;;;;;;20.74;36.38;95283.13;6052974;28;109793;-62
2023/03/02 05:59:03;;;;;;;3.70;3.40;;;;;;;20.65;36.33;95268.13;6061066;28;109513;-62
2023/03/02 06:02:08;;;;;;;3.43;3.13;;;;;;;20.74;36.11;95279.69;6060856;28;110814;-62
2023/03/02 06:05:13;;;;;;;6.33;3.87;;;;;;;20.72;36.18;95281.84;6050056;28;109028;-62
2023/03/02 06:08:16;;;;;;;3.43;3.13;;;;;;;20.71;36.20;95280.28;6061002;28;110306;-63
2023/03/02 06:11:19;;;;;;;3.90;3.60;;;;;;;20.71;36.28;95285.59;6061804;28;109139;-62
2023/03/02 06:14:23;;;;;;;4.43;2.87;;;;;;;20.68;35.92;95292.28;6060683;28;109274;-67
2023/03/02 06:17:27;;;;;;;4.10;3.30;;;;;;;20.67;36.22;95288.03;6050077;28;109637;-63
2023/03/02 06:20:31;;;;;;;2.97;2.70;;;;;;;20.64;36.05;95293.91;6060504;28;109193;-63
2023/03/02 06:23:34;;;;;;;3.33;3.10;;;;;;;20.61;36.34;95289.19;6060985;28;109252;-63
2023/03/02 06:26:37;;;;;;;3.10;2.80;;;;;;;20.59;36.04;95291.34;6060245;28;109276;-61
2023/03/02 06:29:40;;;;;;;3.93;2.97;;;;;;;20.57;35.95;95298.81;6052501;28;111575;-63
2023/03/02 06:32:45;;;;;;;2.50;2.30;;;;;;;20.55;36.15;95298.31;6064255;28;109410;-63
2023/03/02 06:35:49;;;;;;;3.40;3.10;;;;;;;20.52;36.08;95307.66;6064519;28;109584;-63
2023/03/02 06:38:53;;;;;;;2.90;2.70;;;;;;;20.44;35.94;95289.69;6059598;28;110258;-62
2023/03/02 06:41:57;;;;;;;2.60;2.40;;;;;;;20.48;36.24;95296.00;6058685;28;109561;-63
2023/03/02 06:45:00;;;;;;;3.30;3.00;;;;;;;20.62;36.86;95301.41;6064235;28;110094;-68
2023/03/02 06:48:06;;;;;;;5.00;4.60;;;;;;;20.49;37.09;95270.22;6063944;28;109172;-68
2023/03/02 06:51:09;;;;;;;6.10;5.57;;;;;;;20.68;37.13;95302.91;6053306;28;109383;-69
2023/03/02 06:54:12;;;;;;;6.83;6.33;;;;;;;20.70;36.75;95308.72;6063876;28;109218;-68
2023/03/02 06:57:15;;;;;;;7.13;6.43;;;;;;;20.70;36.59;95302.63;6063383;28;111847;-69
2023/03/02 07:00:23;;;;;;;6.67;6.07;;;;;;;20.71;36.30;95309.53;6063725;28;109480;-69
2023/03/02 07:03:29;;;;;;;6.93;6.43;;;;;;;20.70;36.75;95297.31;6052964;28;111673;-69
2023/03/02 07:06:32;;;;;;;7.73;7.00;;;;;;;20.71;36.70;95302.34;6063945;28;109218;-68
2023/03/02 07:09:35;;;;;;;7.57;6.87;;;;;;;20.72;36.55;95305.78;6063617;28;109119;-68
2023/03/02 07:12:39;;;;;;;7.80;7.10;;;;;;;20.71;36.68;95310.31;6059004;28;109071;-68
2023/03/02 07:15:42;;;;;;;7.43;6.83;;;;;;;20.18;36.61;95220.19;6057694;28;109176;-69
2023/03/02 07:18:46;;;;;;;8.43;7.73;;;;;;;20.68;36.54;95305.56;6064230;28;109580;-68
2023/03/02 07:21:49;;;;;;;7.90;7.20;;;;;;;20.72;36.67;95306.56;6063770;28;109284;-68
2023/03/02 07:24:53;;;;;;;8.20;7.50;;;;;;;20.72;36.63;95298.59;6053929;28;111112;-69
2023/03/02 07:27:56;;;;;;;8.30;7.60;;;;;;;20.57;36.39;95282.88;6062855;28;109744;-68
2023/03/02 07:30:59;;;;;;;8.30;7.37;;;;;;;20.71;36.64;95299.66;6063654;28;109280;-68
2023/03/02 07:34:04;;;;;;;8.10;7.40;;;;;;;20.72;36.53;95303.13;6063464;28;109999;-68
2023/03/02 07:37:07;;;;;;;7.43;6.83;;;;;;;20.71;36.77;95306.88;6051578;28;109524;-69
2023/03/02 07:40:12;;;;;;;9.00;8.20;;;;;;;20.70;36.77;95297.31;6063356;28;110087;-67
2023/03/02 07:43:15;;;;;;;8.10;7.50;;;;;;;20.67;36.85;95301.34;6062941;28;109237;-69
2023/03/02 07:46:18;;;;;;;8.80;8.00;;;;;;;20.67;36.63;95309.31;6063418;28;108831;-68
2023/03/02 07:49:23;;;;;;;7.93;7.33;;;;;;;20.68;37.03;95310.09;6052756;28;109251;-68
2023/03/02 07:52:28;;;;;;;7.30;6.70;;;;;;;20.67;36.41;95311.97;6063073;28;109175;-68
2023/03/02 07:55:32;;;;;;;6.90;6.30;;;;;;;20.65;36.38;95305.34;6062860;28;109083;-68
2023/03/02 07:58:35;;;;;;;7.60;6.90;;;;;;;20.65;36.52;95306.13;6053985;28;112516;-68
2023/03/02 08:01:38;;;;;;;7.70;7.00;;;;;;;20.65;36.78;95306.13;6062329;28;109037;-68
2023/03/02 08:04:44;;;;;;;7.40;6.80;;;;;;;20.53;36.67;95295.16;6062654;28;109138;-69
2023/03/02 08:07:47;;;;;;;7.33;6.63;;;;;;;20.72;37.17;95295.94;6063107;28;110412;-63
2023/03/02 08:10:50;;;;;;;6.87;6.17;;;;;;;20.64;36.83;95291.25;6051669;28;109164;-62
2023/03/02 08:13:53;;;;;;;6.80;6.20;;;;;;;20.66;36.54;95299.72;6062588;28;109003;-62
2023/03/02 08:16:57;;;;;;;7.47;6.87;;;;;;;20.64;36.60;95299.22;6062936;28;110373;-62
2023/03/02 08:20:02;;;;;;;6.70;6.20;;;;;;;20.58;36.23;95289.75;6063189;28;109704;-62
2023/03/02 08:23:05;;;;;;;6.73;6.23;;;;;;;20.62;36.35;95298.75;6052716;28;110946;-62
2023/03/02 08:26:09;;;;;;;6.73;6.20;;;;;;;20.61;36.43;95291.84;6062737;28;110191;-62
2023/03/02 08:29:16;;;;;;;6.20;5.70;;;;;;;20.60;36.22;95298.25;6061513;28;109367;-62
2023/03/02 08:32:19;;;;;;;5.63;5.17;;;;;;;20.45;36.78;95269.22;6057823;28;109286;-62
2023/03/02 08:35:23;;;;;;;6.50;5.93;;;;;;;20.57;36.30;95288.19;6057703;28;110984;-62
2023/03/02 08:38:27;;;;;;;5.93;5.40;;;;;;;20.58;36.43;95295.88;6074100;28;109102;-62
2023/03/02 08:41:33;;;;;;;6.00;5.53;;;;;;;20.58;36.20;95289.75;6085942;28;109334;-62
2023/03/02 08:44:36;;;;;;;5.87;5.37;;;;;;;20.57;36.20;95294.28;6074810;28;109410;-63
2023/03/02 08:47:39;;;;;;;5.50;5.10;;;;;;;20.56;36.30;95294.59;6085829;28;109405;-62
2023/03/02 08:50:44;;;;;;;5.87;5.47;;;;;;;20.48;36.00;95287.25;6085746;28;108925;-62
2023/03/02 08:53:50;;;;;;;5.57;5.17;;;;;;;20.54;36.29;95291.44;6085392;28;109196;-63
2023/03/02 08:56:53;;;;;;;5.60;5.20;;;;;;;20.52;36.30;95296.25;6075082;28;110110;-63
2023/03/02 08:59:56;;;;;;;6.40;5.93;;;;;;;20.51;36.17;95292.00;6085484;28;109057;-63
2023/03/02 09:03:01;;;;;;;5.30;4.90;;;;;;;20.47;36.05;95283.00;6085308;28;109137;-62
2023/03/02 09:06:06;;;;;;;5.23;4.83;;;;;;;20.50;36.01;95287.75;6082262;28;109381;-63
2023/03/02 09:09:09;;;;;;;5.00;4.50;;;;;;;20.48;36.24;95289.91;6079889;28;109496;-62
2023/03/02 09:12:13;;;;;;;5.37;4.97;;;;;;;20.46;35.88;95297.38;6085678;28;109316;-62
2023/03/02 09:15:16;;;;;;;5.07;4.70;;;;;;;20.47;36.06;95291.00;6086147;28;109206;-62
2023/03/02 09:18:19;;;;;;;5.33;4.90;;;;;;;20.43;36.05;95285.47;6075228;28;110123;-71
2023/03/02 09:21:25;;;;;;;4.70;4.40;;;;;;;20.25;36.06;95263.13;6085969;28;109215;-62
2023/03/02 09:24:28;;;;;;;4.60;4.30;;;;;;;20.42;35.87;95285.75;6085403;28;109038;-63
2023/03/02 09:27:31;;;;;;;4.73;4.40;;;;;;;20.32;36.02;95266.22;6085826;28;108834;-62
2023/03/02 09:30:34;;;;;;;4.40;4.10;;;;;;;20.46;35.67;95286.75;6074719;28;109441;-63
2023/03/02 09:33:37;;;;;;;4.87;4.47;;;;;;;20.22;35.66;95258.38;6085571;28;110012;-62
2023/03/02 09:36:42;;;;;;;5.10;4.70;;;;;;;20.32;35.62;95266.22;6085332;28;109086;-62
2023/03/02 09:39:45;;;;;;;4.50;4.10;;;;;;;20.48;35.72;95285.38;6086065;28;109475;-63
2023/03/02 09:43:01;;;;;;;4.50;4.17;;;;;;;20.46;35.85;95284.88;6073650;28;109439;-63
2023/03/02 09:46:15;;;;;;;4.67;4.30;;;;;;;20.46;35.73;95284.88;6085075;28;109318;-62
2023/03/02 09:49:30;;;;;;;4.20;3.90;;;;;;;20.47;35.55;95280.34;6085075;28;110112;-62
2023/03/02 09:52:39;;;;;;;4.20;3.90;;;;;;;20.47;35.88;95280.34;6075188;28;110490;-63
2023/03/02 09:55:44;;;;;;;4.93;4.47;;;;;;;20.47;35.56;95273.16;6084920;28;109458;-63
2023/03/02 09:58:53;;;;;;;3.93;3.63;;;;;;;20.38;35.55;95258.19;6084964;28;109267;-63
2023/03/02 10:02:01;;;;;;;4.53;4.13;;;;;;;20.49;35.39;95273.66;6083247;28;111150;-62
2023/03/02 10:05:11;;;;;;;5.00;4.60;;;;;;;20.45;35.76;95269.22;6074638;28;109194;-63
2023/03/02 10:08:19;;;;;;;3.50;3.30;;;;;;;20.48;35.41;95268.66;6084772;28;109126;-63
2023/03/02 10:11:31;;;;;;;4.10;3.80;;;;;;;20.26;35.71;95240.81;6085439;28;109248;-62
2023/03/02 10:14:39;;;;;;;4.00;3.70;;;;;;;20.47;35.40;95270.50;6079778;28;110197;-62
2023/03/02 10:17:53;;;;;;;4.20;3.90;;;;;;;20.49;35.43;95276.31;6079646;28;111940;-62
2023/03/02 10:21:03;;;;;;;4.23;3.93;;;;;;;20.48;35.48;95280.06;6084649;28;109042;-62
2023/03/02 10:24:17;;;;;;;3.60;3.40;;;;;;;20.32;35.24;95247.59;6084765;28;109590;-62
2023/03/02 10:27:27;;;;;;;3.40;3.20;;;;;;;20.45;35.55;95270.00;6072892;28;109301;-63
2023/03/02 10:30:34;;;;;;;3.70;3.43;;;;;;;20.47;35.62;95267.84;6083936;28;109848;-63
2023/03/02 10:33:39;;;;;;;3.53;3.23;;;;;;;20.47;35.52;95259.09;6083566;28;109245;-62
2023/03/02 10:36:46;;;;;;;3.40;3.10;;;;;;;20.47;35.39;95261.75;6084511;28;111401;-62
2023/03/02 10:39:51;;;;;;;3.77;3.47;;;;;;;20.42;35.54;95253.88;6074387;28;111085;-63
2023/03/02 10:42:55;;;;;;;3.70;3.40;;;;;;;20.45;35.49;95248.75;6083939;28;109044;-62
2023/03/02 10:46:00;;;;;;;3.63;3.33;;;;;;;20.41;35.08;95247.75;6084282;28;110276;-62
2023/03/02 10:49:03;;;;;;;3.57;3.27;;;;;;;20.38;35.51;95245.69;6074587;28;111068;-62
2023/03/02 10:52:13;;;;;;;3.00;2.80;;;;;;;20.21;35.47;95213.50;6084172;28;109133;-62
2023/03/02 10:55:18;;;;;;;3.40;3.20;;;;;;;20.44;35.49;95244.50;6084227;28;108869;-62
2023/03/02 10:58:25;;;;;;;3.23;3.03;;;;;;;20.44;35.53;95241.06;6083668;28;109455;-63
2023/03/02 11:01:29;;;;;;;3.50;3.30;;;;;;;20.44;35.37;95230.44;6071914;28;109107;-62
2023/03/02 11:04:32;;;;;;;3.20;3.00;;;;;;;20.45;35.44;95237.34;6083304;28;109002;-62
2023/03/02 11:07:35;;;;;;;3.10;2.90;;;;;;;20.29;35.36;95213.66;6083770;28;109097;-62
2023/03/02 11:10:50;;;;;;;3.40;3.10;;;;;;;20.42;35.27;95233.38;6084081;28;109033;-62
2023/03/02 11:13:55;;;;;;;3.10;2.90;;;;;;;20.47;35.35;95232.50;6073786;28;109259;-62
2023/03/02 11:17:00;;;;;;;3.10;2.80;;;;;;;20.45;35.43;95227.47;6087525;28;110669;-63
2023/03/02 11:20:15;;;;;;;3.20;3.00;;;;;;;20.46;35.31;95223.75;6087993;28;109060;-63
2023/03/02 11:23:25;;;;;;;3.07;2.87;;;;;;;20.48;35.12;95218.94;6077870;28;110328;-63
2023/03/02 11:26:35;;;;;;;2.87;2.67;;;;;;;20.48;35.28;95226.91;6087135;28;109205;-62
2023/03/02 11:29:44;;;;;;;3.33;3.10;;;;;;;20.21;35.28;95178.97;6087013;28;109637;-62
2023/03/02 11:32:54;;;;;;;3.07;2.87;;;;;;;20.48;35.24;95215.47;6087452;28;110212;-62
2023/03/02 11:36:02;;;;;;;2.80;2.60;;;;;;;20.43;35.30;95212.91;6075709;28;110531;-62
2023/03/02 11:39:11;;;;;;;2.97;2.77;;;;;;;20.46;35.23;95207.00;6086936;28;109082;-63
2023/03/02 11:42:20;;;;;;;2.80;2.60;;;;;;;20.48;35.52;95205.63;6087398;28;110912;-63
2023/03/02 11:45:27;;;;;;;2.40;2.20;;;;;;;20.48;35.27;95199.53;6081293;28;109044;-62
2023/03/02 11:48:35;;;;;;;2.83;2.63;;;;;;;20.50;34.72;95210.66;6081235;28;110431;-62
2023/03/02 11:51:41;;;;;;;2.90;2.70;;;;;;;20.46;35.17;95202.47;6086859;28;109325;-62
2023/03/02 11:55:03;;;;;;;2.70;2.50;;;;;;;20.49;35.29;95203.75;6087492;28;109655;-62
2023/03/02 11:58:13;;;;;;;2.90;2.70;;;;;;;20.37;35.18;95192.81;6075432;28;109334;-62
2023/03/02 12:01:20;;;;;;;2.83;2.63;;;;;;;20.19;35.31;95165.97;6086767;28;109483;-62
2023/03/02 12:04:28;;;;;;;2.60;2.40;;;;;;;20.47;35.04;95209.38;6087229;28;109750;-63
2023/03/02 12:07:32;;;;;;;2.50;2.30;;;;;;;20.47;34.97;95197.94;6086115;28;109562;-63
2023/03/02 12:10:38;;;;;;;2.90;2.70;;;;;;;20.43;35.08;95200.41;6077185;28;110263;-62
2023/03/02 12:13:44;;;;;;;3.00;2.80;;;;;;;20.38;35.04;95195.19;6086487;28;109054;-62
2023/03/02 12:16:48;;;;;;;2.50;2.30;;;;;;;20.45;35.12;95205.44;6086613;28;109583;-62
2023/03/02 12:19:53;;;;;;;2.60;2.40;;;;;;;20.36;34.84;95191.25;6076871;28;109175;-63
2023/03/02 12:23:09;;;;;;;2.53;2.33;;;;;;;20.38;35.14;95195.19;6086415;28;109631;-62
2023/03/02 12:26:26;;;;;;;2.70;2.50;;;;;;;20.28;34.97;95179.41;6085349;28;109247;-63
2023/03/02 12:29:41;;;;;;;2.97;2.77;;;;;;;20.35;35.16;95187.00;6086296;28;109241;-62
2023/03/02 12:32:47;;;;;;;2.90;2.70;;;;;;;20.40;35.16;95198.34;6075929;28;109132;-62
2023/03/02 12:35:55;;;;;;;2.73;2.53;;;;;;;20.32;35.13;95183.03;6086237;28;109068;-63
2023/03/02 12:39:15;;;;;;;2.70;2.50;;;;;;;20.41;34.96;95193.81;6085226;28;109087;-62
2023/03/02 12:42:48;;;;;;;2.27;2.10;;;;;;;20.40;34.99;95194.91;6080980;28;110420;-62
2023/03/02 12:46:33;;;;;;;2.20;2.10;;;;;;;20.40;35.03;95203.66;6086242;28;109412;-62
2023/03/02 12:49:50;;;;;;;2.37;2.27;;;;;;;20.40;34.93;95203.66;6086150;28;109066;-62
2023/03/02 12:53:02;;;;;;;2.73;2.60;;;;;;;20.40;34.85;95202.88;6086527;28;110153;-62
2023/03/02 12:56:07;;;;;;;2.60;2.40;;;;;;;20.41;35.13;95204.44;6075910;28;109351;-61
2023/03/02 12:59:21;;;;;;;2.90;2.70;;;;;;;20.41;34.93;95194.59;6086370;28;109612;-62
2023/03/02 13:02:27;;;;;;;2.80;2.60;;;;;;;20.40;34.80;95189.56;6085967;28;109149;-62
2023/03/02 13:05:33;;;;;;;2.43;2.33;;;;;;;20.40;34.97;95187.72;6075851;28;111689;-62
2023/03/02 13:08:37;;;;;;;2.70;2.50;;;;;;;20.41;34.83;95188.50;6085937;28;108867;-62
2023/03/02 13:11:43;;;;;;;2.20;2.10;;;;;;;20.41;35.03;95188.50;6085168;28;110948;-62
2023/03/02 13:14:52;;;;;;;2.07;1.97;;;;;;;20.41;35.02;95183.19;6085512;28;109187;-62
2023/03/02 13:17:57;;;;;;;2.43;2.23;;;;;;;20.33;34.88;95168.66;6076088;28;110296;-62
2023/03/02 13:21:03;;;;;;;2.70;2.50;;;;;;;20.39;34.79;95175.50;6086084;28;108869;-63
2023/03/02 13:24:34;;;;;;;2.20;2.10;;;;;;;20.40;34.85;95176.28;6086136;28;109221;-62
2023/03/02 13:27:38;;;;;;;2.30;2.10;;;;;;;20.39;35.11;95169.41;6080414;28;109886;-62
2023/03/02 13:30:46;;;;;;;2.00;1.90;;;;;;;20.31;34.78;95154.88;6080644;28;109355;-63
2023/03/02 13:33:52;;;;;;;2.20;2.00;;;;;;;20.39;34.87;95156.91;6068880;28;110520;-63
2023/03/02 13:36:57;;;;;;;2.80;2.60;;;;;;;20.35;34.84;95152.47;6061821;28;109220;-67
2023/03/02 13:40:01;;;;;;;2.47;2.27;;;;;;;20.37;34.61;95153.75;6066890;28;110467;-62
2023/03/02 13:43:19;;;;;;;2.67;2.47;;;;;;;20.20;35.20;95125.03;6085081;28;109194;-63
2023/03/02 13:46:28;;;;;;;2.60;2.40;;;;;;;20.23;34.85;95129.75;6084875;28;109466;-62
2023/03/02 13:49:34;;;;;;;2.10;2.00;;;;;;;20.36;34.83;95149.50;6085188;28;110067;-62
2023/03/02 13:52:41;;;;;;;2.60;2.40;;;;;;;20.30;34.88;95140.81;6074282;28;109056;-63
2023/03/02 13:55:44;;;;;;;2.47;2.27;;;;;;;20.36;34.67;95146.84;6085118;28;110144;-63
2023/03/02 13:58:47;;;;;;;2.50;2.30;;;;;;;20.36;34.79;95154.03;6084594;28;109104;-63
2023/03/02 14:01:53;;;;;;;2.67;2.43;;;;;;;20.31;35.17;95153.03;6079464;28;110328;-62
2023/03/02 14:04:57;;;;;;;2.50;2.30;;;;;;;20.33;34.88;95158.03;6080783;28;110384;-71
2023/03/02 14:08:02;;;;;;;3.50;2.97;;;;;;;20.16;35.50;95124.00;6084681;28;109238;-62
2023/03/02 14:11:07;;;;;;;3.30;3.00;;;;;;;20.29;35.40;95147.22;6085102;28;110319;-68
2023/03/02 14:14:14;;;;;;;3.77;3.20;;;;;;;20.30;35.40;95143.47;6072273;28;109415;-66
2023/03/02 14:17:22;;;;;;;11.80;4.53;;;;;;;20.30;35.56;95145.34;6084642;28;109278;-62
2023/03/02 14:20:25;;;;;;;8.40;4.07;;;;;;;19.99;35.88;95091.88;6084801;28;109494;-62
2023/03/02 14:23:30;;;;;;;6.83;3.60;;;;;;;20.32;35.65;95137.88;6084574;28;109388;-61